Time;durP1;ratioP1;P1;durP2;ratioP2;P2;SDS_P1;SDS_P2;PMS_P1;PMS_P2;Temp;Humidity;BMP_temperature;BMP_pressure;BME280_temperature;BME280_humidity;BME280_pressure;Samples;Min_cycle;Max_cycle;Signal;HPM_P1;HPM_P2
2022/09/06 00:01:12;;;;;;;7.65;6.65;;;25.00;60.80;;;;;;5036796;28;20021;-85
2022/09/06 00:03:38;;;;;;;8.38;7.18;;;24.80;61.50;;;;;;5050885;28;20033;-78
2022/09/06 00:06:11;;;;;;;7.85;7.03;;;25.10;61.00;;;;;;5050288;28;20025;-79
2022/09/06 00:08:38;;;;;;;9.30;7.60;;;25.00;61.00;;;;;;5035549;28;20096;-84
2022/09/06 00:11:04;;;;;;;7.95;6.90;;;25.20;60.50;;;;;;5023833;28;20033;-77
2022/09/06 00:13:30;;;;;;;9.93;8.38;;;25.40;60.30;;;;;;5033501;28;20120;-77
2022/09/06 00:15:55;;;;;;;9.25;8.02;;;25.50;60.00;;;;;;5035380;28;20440;-86
2022/09/06 00:18:21;;;;;;;9.15;7.07;;;25.50;59.90;;;;;;5035507;28;20021;-77
2022/09/06 00:20:47;;;;;;;8.00;7.10;;;25.40;59.90;;;;;;5032254;28;20025;-86
2022/09/06 00:23:13;;;;;;;10.02;6.90;;;25.40;60.00;;;;;;5036100;28;20167;-78
2022/09/06 00:25:40;;;;;;;9.50;6.97;;;25.50;59.70;;;;;;5042471;28;20022;-78
2022/09/06 00:28:06;;;;;;;10.13;8.63;;;25.30;60.40;;;;;;5017832;28;20087;-85
2022/09/06 00:30:32;;;;;;;8.73;7.07;;;25.30;59.80;;;;;;5027860;28;20067;-83
2022/09/06 00:32:58;;;;;;;9.00;8.10;;;25.30;59.90;;;;;;5053296;28;20028;-83
2022/09/06 00:35:25;;;;;;;7.97;6.65;;;25.30;59.90;;;;;;5035835;28;20025;-76
2022/09/06 00:37:55;;;;;;;10.18;8.80;;;25.10;60.10;;;;;;5054386;28;20032;-77
2022/09/06 00:40:21;;;;;;;8.93;7.38;;;25.10;60.20;;;;;;5036179;28;20158;-77
2022/09/06 00:42:46;;;;;;;30.63;12.10;;;25.00;60.20;;;;;;5053636;28;20112;-77
2022/09/06 00:45:13;;;;;;;23.45;9.38;;;24.60;61.50;;;;;;5035905;28;20048;-84
2022/09/06 00:47:41;;;;;;;16.83;8.60;;;24.10;62.50;;;;;;5037296;28;20025;-86
2022/09/06 00:50:09;;;;;;;16.17;9.70;;;23.70;63.90;;;;;;5036437;28;20383;-79
2022/09/06 00:52:38;;;;;;;15.90;7.80;;;23.90;63.30;;;;;;5025649;28;20042;-84
2022/09/06 00:55:05;;;;;;;17.47;10.10;;;24.30;62.50;;;;;;5033512;28;20025;-78
2022/09/06 00:57:31;;;;;;;16.80;10.48;;;24.60;61.80;;;;;;5016324;28;20769;-84
2022/09/06 00:59:58;;;;;;;18.80;10.25;;;24.70;61.50;;;;;;5032879;28;20032;-83
2022/09/06 01:02:24;;;;;;;18.73;10.07;;;24.70;61.50;;;;;;5054115;28;20383;-80
2022/09/06 01:04:51;;;;;;;23.77;10.70;;;24.70;61.20;;;;;;5035893;28;20468;-86
2022/09/06 01:07:34;;;;;;;22.45;11.30;;;24.70;61.40;;;;;;5049587;28;20025;-85
2022/09/06 01:10:41;;;;;;;21.50;9.85;;;24.60;61.30;;;;;;5031259;28;20071;-85
2022/09/06 01:13:27;;;;;;;19.40;9.73;;;24.70;61.50;;;;;;5023961;28;20052;-83
2022/09/06 01:16:18;;;;;;;24.15;11.40;;;24.70;61.20;;;;;;5053813;28;20025;-77
2022/09/06 01:19:02;;;;;;;24.40;11.10;;;24.70;61.30;;;;;;5029750;28;20388;-86
2022/09/06 01:21:49;;;;;;;17.10;9.32;;;24.80;61.30;;;;;;5053031;28;20380;-85
2022/09/06 01:24:36;;;;;;;18.50;8.52;;;24.90;61.10;;;;;;5053498;28;20044;-85
2022/09/06 01:27:29;;;;;;;11.90;6.80;;;24.90;61.30;;;;;;5034530;28;20017;-79
2022/09/06 01:30:07;;;;;;;10.05;6.28;;;24.80;61.60;;;;;;5026108;28;20074;-77
2022/09/06 01:33:05;;;;;;;11.60;7.22;;;24.60;62.20;;;;;;5040302;28;20029;-80
2022/09/06 01:35:40;;;;;;;14.05;7.57;;;24.60;62.00;;;;;;5035695;28;20029;-79
2022/09/06 01:38:08;;;;;;;10.38;6.35;;;24.90;61.60;;;;;;5033413;28;20388;-83
2022/09/06 01:40:35;;;;;;;13.98;7.63;;;25.10;61.20;;;;;;5052352;28;20472;-78
2022/09/06 01:43:03;;;;;;;12.57;8.10;;;25.30;60.80;;;;;;5035896;28;20491;-77
2022/09/06 01:45:58;;;;;;;14.48;8.85;;;25.40;60.70;;;;;;5019266;28;20032;-83
2022/09/06 01:48:46;;;;;;;16.58;10.80;;;25.40;60.90;;;;;;5027186;28;20040;-78
2022/09/06 01:51:21;;;;;;;14.38;8.52;;;25.30;61.10;;;;;;5023512;28;20108;-83
2022/09/06 01:54:30;;;;;;;14.20;7.70;;;25.20;61.40;;;;;;5033630;28;20428;-78
2022/09/06 01:57:14;;;;;;;8.77;7.20;;;25.10;61.30;;;;;;4940143;28;20210;-77
2022/09/06 02:00:08;;;;;;;12.77;7.30;;;25.20;61.20;;;;;;4955730;28;20035;-83
2022/09/06 02:03:06;;;;;;;8.00;6.28;;;25.20;60.70;;;;;;4955798;28;20030;-78
2022/09/06 02:05:38;;;;;;;10.60;6.82;;;25.20;60.20;;;;;;4880951;29;20080;-86
2022/09/06 02:08:13;;;;;;;11.15;7.07;;;25.00;60.90;;;;;;4896489;29;20172;-85
2022/09/06 02:11:09;;;;;;;11.10;6.88;;;25.10;61.10;;;;;;4894348;29;20388;-83
2022/09/06 02:13:58;;;;;;;8.38;5.97;;;25.20;60.80;;;;;;4895994;29;20670;-78
2022/09/06 02:16:26;;;;;;;7.80;6.15;;;25.40;60.00;;;;;;4887330;29;20040;-77
2022/09/06 02:18:55;;;;;;;7.93;6.20;;;25.20;60.40;;;;;;4877516;29;20124;-78
2022/09/06 02:21:28;;;;;;;9.57;7.30;;;25.30;60.50;;;;;;4893634;29;20036;-86
2022/09/06 02:23:58;;;;;;;10.10;8.05;;;25.50;60.00;;;;;;4877464;29;20055;-84
2022/09/06 02:26:29;;;;;;;8.80;7.55;;;25.50;60.20;;;;;;4886409;29;20033;-79
2022/09/06 02:28:55;;;;;;;8.82;7.63;;;25.40;60.70;;;;;;4880772;29;20100;-78
2022/09/06 02:31:54;;;;;;;8.40;6.88;;;25.40;60.50;;;;;;4938995;28;20075;-87
2022/09/06 02:34:25;;;;;;;11.13;6.03;;;25.30;60.00;;;;;;4955729;28;20027;-88
2022/09/06 02:36:51;;;;;;;7.68;6.88;;;24.70;61.30;;;;;;4956233;28;20127;-83
2022/09/06 02:39:17;;;;;;;7.07;6.38;;;24.60;61.90;;;;;;4971965;28;20070;-83
2022/09/06 02:41:46;;;;;;;9.13;6.00;;;24.60;62.20;;;;;;4989018;28;20510;-82
2022/09/06 02:44:13;;;;;;;7.28;5.90;;;24.40;62.00;;;;;;5035232;28;20041;-80
2022/09/06 02:46:38;;;;;;;8.68;6.60;;;24.10;62.80;;;;;;5035305;28;20041;-88
2022/09/06 02:49:04;;;;;;;9.52;7.30;;;24.20;62.90;;;;;;5035595;28;20028;-88
2022/09/06 02:51:38;;;;;;;9.70;6.97;;;24.60;62.00;;;;;;5033428;28;20393;-86
2022/09/06 02:54:05;;;;;;;8.85;7.50;;;24.90;61.40;;;;;;5042725;28;20028;-86
2022/09/06 02:56:32;;;;;;;10.40;8.52;;;25.10;60.70;;;;;;5052885;28;20060;-87
2022/09/06 02:58:59;;;;;;;9.98;7.70;;;25.20;60.70;;;;;;5038910;28;20052;-83
2022/09/06 03:01:25;;;;;;;11.05;9.85;;;25.20;60.50;;;;;;5051824;28;20025;-81
2022/09/06 03:03:51;;;;;;;13.18;8.30;;;25.10;60.70;;;;;;5054287;28;20107;-84
2022/09/06 03:06:16;;;;;;;12.80;8.32;;;25.00;60.80;;;;;;5055597;28;20154;-79
2022/09/06 03:08:42;;;;;;;12.63;8.90;;;24.90;60.80;;;;;;5054525;28;20032;-76
2022/09/06 03:11:08;;;;;;;12.50;8.18;;;24.90;60.90;;;;;;5038192;28;20102;-80
2022/09/06 03:13:34;;;;;;;12.98;8.95;;;24.80;61.00;;;;;;5037936;28;20029;-78
2022/09/06 03:16:00;;;;;;;11.60;8.20;;;24.90;60.90;;;;;;5037924;28;20063;-80
2022/09/06 03:18:27;;;;;;;10.98;8.68;;;24.90;60.70;;;;;;5056555;28;20097;-84
2022/09/06 03:20:54;;;;;;;9.98;8.50;;;24.90;60.70;;;;;;5036252;28;20112;-83
2022/09/06 03:23:22;;;;;;;10.20;8.55;;;24.90;60.60;;;;;;5056684;28;20044;-82
2022/09/06 03:25:48;;;;;;;11.98;9.25;;;24.80;61.00;;;;;;5021696;28;20094;-85
2022/09/06 03:28:16;;;;;;;11.48;10.27;;;24.70;60.90;;;;;;5056410;28;20059;-79
2022/09/06 03:30:44;;;;;;;10.43;7.90;;;24.70;60.90;;;;;;5035695;28;20057;-80
2022/09/06 03:33:10;;;;;;;10.57;8.70;;;24.70;60.90;;;;;;5031502;28;20048;-88
2022/09/06 03:35:36;;;;;;;12.95;9.18;;;24.80;60.90;;;;;;5035809;28;20034;-88
2022/09/06 03:38:02;;;;;;;11.18;9.20;;;24.70;60.80;;;;;;5041186;28;20094;-87
2022/09/06 03:40:27;;;;;;;12.75;10.23;;;24.70;60.70;;;;;;5054442;28;20476;-78
2022/09/06 03:42:53;;;;;;;11.35;9.65;;;24.70;60.80;;;;;;5055164;28;20020;-82
2022/09/06 03:45:19;;;;;;;12.88;10.48;;;24.60;60.80;;;;;;5037686;28;20369;-86
2022/09/06 03:47:44;;;;;;;10.80;9.07;;;24.40;61.00;;;;;;5037462;28;20044;-78
2022/09/06 03:50:10;;;;;;;11.93;9.75;;;24.30;61.70;;;;;;5054607;28;20025;-77
2022/09/06 03:52:36;;;;;;;13.20;9.90;;;24.20;61.60;;;;;;5033794;28;20039;-78
2022/09/06 03:55:03;;;;;;;15.65;9.90;;;24.20;61.50;;;;;;5054865;28;20104;-86
2022/09/06 03:57:28;;;;;;;13.88;10.73;;;24.10;61.50;;;;;;5035965;28;20025;-80
2022/09/06 03:59:54;;;;;;;12.93;10.02;;;24.10;61.80;;;;;;5037558;28;20047;-83
2022/09/06 04:02:20;;;;;;;14.68;10.88;;;24.00;61.80;;;;;;5054230;28;20021;-85
2022/09/06 04:04:45;;;;;;;11.98;8.65;;;23.90;62.00;;;;;;5054316;28;20037;-79
2022/09/06 04:07:11;;;;;;;14.18;9.57;;;23.90;62.20;;;;;;5054109;28;20103;-85
2022/09/06 04:09:37;;;;;;;14.93;8.90;;;24.00;62.10;;;;;;5053360;28;20434;-79
2022/09/06 04:12:03;;;;;;;13.70;9.45;;;24.00;62.30;;;;;;5036400;28;20029;-79
2022/09/06 04:14:29;;;;;;;14.35;9.35;;;24.10;62.10;;;;;;5054873;28;20037;-79
2022/09/06 04:16:55;;;;;;;11.30;9.20;;;24.20;62.20;;;;;;5055455;28;20444;-84
2022/09/06 04:19:20;;;;;;;16.80;10.13;;;24.10;62.00;;;;;;5036434;28;20055;-80
2022/09/06 04:21:46;;;;;;;14.20;8.95;;;24.10;62.20;;;;;;5054270;28;20499;-81
2022/09/06 04:24:12;;;;;;;10.80;8.52;;;24.00;62.30;;;;;;5053490;28;20079;-78
2022/09/06 04:26:37;;;;;;;11.25;7.78;;;24.10;62.40;;;;;;5053896;28;20036;-88
2022/09/06 04:29:03;;;;;;;7.95;6.68;;;24.10;62.30;;;;;;5020265;28;20029;-79
2022/09/06 04:31:29;;;;;;;8.00;6.97;;;23.80;62.90;;;;;;5035728;28;20040;-81
2022/09/06 04:33:55;;;;;;;9.23;7.80;;;23.50;63.90;;;;;;5037700;28;20471;-86
2022/09/06 04:36:20;;;;;;;9.80;7.22;;;23.40;64.40;;;;;;5053495;28;20029;-79
2022/09/06 04:38:46;;;;;;;9.90;7.68;;;23.60;63.90;;;;;;5052308;28;20215;-85
2022/09/06 04:41:14;;;;;;;9.07;8.07;;;24.00;63.00;;;;;;5055040;28;20021;-77
2022/09/06 04:43:40;;;;;;;10.40;7.78;;;24.40;62.40;;;;;;5052083;28;20480;-82
2022/09/06 04:46:17;;;;;;;11.00;8.55;;;24.60;61.80;;;;;;5035362;28;20040;-85
2022/09/06 04:48:43;;;;;;;11.07;8.00;;;24.80;61.50;;;;;;5053267;28;20074;-80
2022/09/06 04:51:09;;;;;;;8.05;7.07;;;24.90;61.10;;;;;;5051427;28;20053;-80
2022/09/06 04:53:35;;;;;;;12.77;7.55;;;25.10;60.90;;;;;;5036830;28;20372;-80
2022/09/06 04:56:00;;;;;;;9.85;7.28;;;25.10;60.60;;;;;;5053056;28;20044;-83
2022/09/06 04:58:26;;;;;;;12.40;7.38;;;25.10;60.40;;;;;;5053329;28;20021;-80
2022/09/06 05:00:52;;;;;;;9.70;8.20;;;25.10;60.50;;;;;;5036343;28;20060;-80
2022/09/06 05:03:17;;;;;;;11.07;6.88;;;25.10;60.70;;;;;;5049547;28;20090;-81
2022/09/06 05:05:43;;;;;;;8.35;6.75;;;25.10;60.70;;;;;;5027735;28;20380;-81
2022/09/06 05:08:09;;;;;;;8.38;6.70;;;25.10;60.00;;;;;;5036313;28;20032;-88
2022/09/06 05:10:34;;;;;;;7.95;6.28;;;25.00;60.20;;;;;;5035879;28;20029;-78
2022/09/06 05:13:00;;;;;;;10.05;6.40;;;24.70;61.00;;;;;;5051671;28;20106;-77
2022/09/06 05:15:26;;;;;;;7.22;5.82;;;24.50;61.10;;;;;;5035816;28;20087;-78
2022/09/06 05:17:51;;;;;;;8.45;5.80;;;24.30;61.10;;;;;;5052754;28;20021;-84
2022/09/06 05:20:17;;;;;;;11.65;5.95;;;24.10;61.60;;;;;;5051603;28;20025;-76
2022/09/06 05:22:52;;;;;;;9.55;7.13;;;24.20;61.40;;;;;;5054372;28;20052;-76
2022/09/06 05:25:19;;;;;;;9.48;6.13;;;24.60;61.00;;;;;;5052051;28;20063;-79
2022/09/06 05:27:44;;;;;;;10.25;6.97;;;24.90;60.50;;;;;;5053985;28;20030;-77
2022/09/06 05:30:11;;;;;;;10.32;7.35;;;25.10;60.00;;;;;;5052282;28;20040;-76
2022/09/06 05:32:36;;;;;;;7.45;6.50;;;25.30;59.70;;;;;;5052535;28;20036;-81
2022/09/06 05:35:02;;;;;;;10.65;7.40;;;25.30;59.90;;;;;;5052906;28;20032;-80
2022/09/06 05:37:28;;;;;;;13.45;7.07;;;25.40;59.90;;;;;;5052058;28;20091;-83
2022/09/06 05:39:54;;;;;;;8.93;7.22;;;25.40;60.10;;;;;;5039830;28;20071;-80
2022/09/06 05:42:19;;;;;;;10.63;6.80;;;25.40;60.30;;;;;;5037178;28;20017;-75
2022/09/06 05:44:45;;;;;;;9.10;6.22;;;25.50;60.30;;;;;;5053761;28;20055;-85
2022/09/06 05:47:11;;;;;;;9.07;6.22;;;25.60;60.10;;;;;;5036239;28;20028;-83
2022/09/06 05:49:36;;;;;;;9.05;5.75;;;25.70;59.80;;;;;;5036095;28;20031;-78
2022/09/06 05:52:02;;;;;;;7.55;5.63;;;25.70;59.40;;;;;;5048956;28;20480;-81
2022/09/06 05:54:28;;;;;;;9.10;5.50;;;25.80;59.30;;;;;;5020712;28;20037;-88
2022/09/06 05:56:53;;;;;;;7.82;5.78;;;25.70;59.10;;;;;;5033952;28;20025;-82
2022/09/06 05:59:19;;;;;;;7.35;5.15;;;25.60;59.50;;;;;;5032523;28;20104;-77
2022/09/06 06:01:50;;;;;;;6.10;5.05;;;25.60;58.40;;;;;;5041304;28;20021;-76
2022/09/06 06:04:21;;;;;;;7.90;4.70;;;25.70;58.50;;;;;;5015203;28;20042;-81
2022/09/06 06:06:48;;;;;;;6.82;4.40;;;25.90;58.10;;;;;;5026694;28;20023;-78
2022/09/06 06:09:14;;;;;;;6.65;4.68;;;26.10;57.00;;;;;;5027468;28;20119;-76
2022/09/06 06:11:40;;;;;;;8.25;4.95;;;26.30;56.70;;;;;;5041406;28;20544;-78
2022/09/06 06:14:05;;;;;;;8.80;5.05;;;26.50;56.00;;;;;;5037389;28;20029;-78
2022/09/06 06:16:31;;;;;;;8.10;5.00;;;26.50;55.20;;;;;;5051937;28;20487;-79
2022/09/06 06:18:57;;;;;;;7.82;5.00;;;26.60;55.70;;;;;;5025479;28;20026;-81
2022/09/06 06:21:25;;;;;;;6.35;4.40;;;26.60;55.70;;;;;;5021873;28;20037;-79
2022/09/06 06:23:59;;;;;;;6.95;4.95;;;26.70;55.30;;;;;;5018395;28;20056;-80
2022/09/06 06:26:26;;;;;;;11.00;4.90;;;26.70;54.80;;;;;;5023383;28;20028;-86
2022/09/06 06:28:53;;;;;;;8.32;4.65;;;26.80;54.80;;;;;;5040588;28;20032;-81
2022/09/06 06:31:21;;;;;;;8.43;4.50;;;26.90;54.40;;;;;;5050900;28;20052;-84
2022/09/06 06:33:47;;;;;;;6.93;4.32;;;27.00;52.20;;;;;;5051524;28;20032;-82
2022/09/06 06:36:13;;;;;;;6.07;4.28;;;26.60;51.50;;;;;;5030063;28;20087;-78
2022/09/06 06:38:40;;;;;;;6.53;4.70;;;26.60;51.70;;;;;;5032648;28;20026;-75
2022/09/06 06:41:08;;;;;;;6.47;4.10;;;26.80;52.10;;;;;;5051825;28;20082;-84
2022/09/06 06:43:37;;;;;;;6.78;4.18;;;26.70;50.50;;;;;;5051387;28;20028;-76
2022/09/06 06:46:05;;;;;;;7.63;4.13;;;26.40;51.50;;;;;;5028945;28;20492;-77
2022/09/06 06:48:31;;;;;;;7.40;4.25;;;26.50;51.30;;;;;;5051028;28;20389;-79
2022/09/06 06:50:57;;;;;;;6.13;4.40;;;26.70;51.70;;;;;;5051429;28;20049;-81
2022/09/06 06:53:23;;;;;;;6.38;4.28;;;26.80;51.10;;;;;;5028932;28;20436;-82
2022/09/06 06:55:48;;;;;;;8.23;4.10;;;26.90;51.80;;;;;;5030334;28;20030;-80
2022/09/06 06:58:15;;;;;;;5.82;4.07;;;26.60;50.40;;;;;;5024114;28;20112;-83
2022/09/06 07:00:42;;;;;;;10.32;4.43;;;26.50;51.30;;;;;;5049803;28;20025;-84
2022/09/06 07:03:09;;;;;;;8.70;4.68;;;26.40;49.90;;;;;;5032530;28;20029;-81
2022/09/06 07:05:35;;;;;;;6.28;4.20;;;25.90;51.10;;;;;;5043018;28;20075;-82
2022/09/06 07:08:01;;;;;;;6.28;4.20;;;26.00;51.60;;;;;;5023131;28;20067;-78
2022/09/06 07:10:27;;;;;;;6.40;4.10;;;26.00;50.70;;;;;;5027808;28;20017;-92
2022/09/06 07:12:53;;;;;;;5.40;3.80;;;25.90;51.20;;;;;;5032155;28;20036;-79
2022/09/06 07:15:19;;;;;;;7.22;4.68;;;26.10;51.50;;;;;;5014225;28;21080;-82
2022/09/06 07:17:44;;;;;;;6.35;4.05;;;26.50;52.00;;;;;;5037061;28;20071;-87
2022/09/06 07:20:10;;;;;;;6.88;4.22;;;26.90;51.90;;;;;;5032427;28;20029;-82
2022/09/06 07:22:37;;;;;;;7.15;4.40;;;27.10;51.40;;;;;;5022181;28;20076;-80
2022/09/06 07:25:04;;;;;;;5.93;4.28;;;27.20;51.00;;;;;;5023702;28;20037;-76
2022/09/06 07:27:29;;;;;;;6.03;4.30;;;27.00;50.60;;;;;;5052440;28;20016;-75
2022/09/06 07:29:55;;;;;;;6.18;4.47;;;26.80;50.80;;;;;;5028133;28;20036;-81
2022/09/06 07:32:21;;;;;;;6.80;4.07;;;26.80;51.80;;;;;;5032958;28;20056;-79
2022/09/06 07:34:47;;;;;;;8.73;4.22;;;26.60;51.20;;;;;;5052215;28;20030;-79
2022/09/06 07:37:12;;;;;;;6.95;4.45;;;26.80;51.70;;;;;;5052289;28;20033;-78
2022/09/06 07:39:38;;;;;;;6.93;4.40;;;26.80;52.20;;;;;;5034434;28;20391;-78
2022/09/06 07:42:05;;;;;;;6.13;4.70;;;26.80;51.80;;;;;;5034510;28;20029;-83
2022/09/06 07:44:31;;;;;;;7.18;4.90;;;26.90;50.60;;;;;;5037105;28;20040;-87
2022/09/06 07:46:56;;;;;;;9.52;4.88;;;26.70;51.10;;;;;;5056045;28;20032;-84
2022/09/06 07:49:22;;;;;;;8.52;5.07;;;27.10;51.80;;;;;;5038298;28;20032;-78
2022/09/06 07:51:48;;;;;;;6.65;4.70;;;27.20;50.60;;;;;;5038053;28;20045;-81
2022/09/06 07:54:14;;;;;;;6.68;4.85;;;27.40;51.10;;;;;;5055761;28;20029;-83
2022/09/06 07:56:40;;;;;;;8.70;4.85;;;27.80;50.70;;;;;;5055697;28;20104;-80
2022/09/06 07:59:05;;;;;;;6.50;4.22;;;28.20;49.50;;;;;;5037871;28;20391;-81
2022/09/06 08:01:33;;;;;;;8.75;4.75;;;28.50;49.40;;;;;;5055797;28;20032;-78
2022/09/06 08:04:01;;;;;;;7.50;4.43;;;28.70;49.20;;;;;;5055431;28;20036;-78
2022/09/06 08:06:28;;;;;;;6.53;4.60;;;28.80;50.20;;;;;;5037910;28;20025;-78
2022/09/06 08:08:54;;;;;;;6.60;4.50;;;28.20;49.30;;;;;;5037437;28;20021;-77
2022/09/06 08:11:21;;;;;;;8.07;4.90;;;27.80;50.60;;;;;;5055533;28;20023;-80
2022/09/06 08:13:53;;;;;;;9.60;4.70;;;27.40;50.50;;;;;;5037679;28;20025;-87
2022/09/06 08:16:20;;;;;;;6.30;4.97;;;27.60;51.10;;;;;;5037193;28;20025;-78
2022/09/06 08:18:55;;;;;;;9.30;4.55;;;27.90;50.20;;;;;;5037144;28;20028;-81
2022/09/06 08:21:22;;;;;;;7.80;4.78;;;28.50;51.50;;;;;;5037680;28;20029;-79
2022/09/06 08:23:54;;;;;;;6.38;4.55;;;28.80;49.60;;;;;;5037629;28;20515;-79
2022/09/06 08:26:21;;;;;;;6.82;4.90;;;28.80;49.80;;;;;;5037785;28;20025;-83
2022/09/06 08:28:51;;;;;;;6.88;4.50;;;28.90;49.30;;;;;;5037252;28;20150;-80
2022/09/06 08:31:17;;;;;;;7.97;4.35;;;29.10;48.30;;;;;;5037146;28;20032;-81
2022/09/06 08:33:43;;;;;;;7.13;4.35;;;29.00;49.70;;;;;;5037274;28;20025;-80
2022/09/06 08:36:10;;;;;;;6.75;4.47;;;28.80;48.90;;;;;;5055052;28;20082;-82
2022/09/06 08:38:36;;;;;;;6.95;4.55;;;28.30;48.90;;;;;;5055118;28;20053;-83
2022/09/06 08:41:13;;;;;;;6.15;4.40;;;28.00;50.50;;;;;;5037596;28;20056;-76
2022/09/06 08:43:45;;;;;;;6.18;4.47;;;28.30;50.10;;;;;;5036977;28;20035;-80
2022/09/06 08:46:11;;;;;;;7.15;5.05;;;28.40;50.10;;;;;;5055090;28;20025;-87
2022/09/06 08:48:38;;;;;;;6.88;4.28;;;28.50;48.60;;;;;;5036867;28;20373;-79
2022/09/06 08:51:31;;;;;;;7.22;4.43;;;27.90;50.70;;;;;;5036713;28;20515;-80
2022/09/06 08:54:05;;;;;;;7.82;5.03;;;28.40;50.10;;;;;;5037364;28;20132;-90
2022/09/06 08:56:59;;;;;;;6.10;4.47;;;28.40;48.80;;;;;;5036668;28;20468;-83
2022/09/06 08:59:25;;;;;;;6.53;4.60;;;27.70;50.20;;;;;;4973796;28;20050;-83
2022/09/06 09:02:12;;;;;;;7.07;4.20;;;27.80;50.00;;;;;;4958118;28;20047;-82
2022/09/06 09:04:42;;;;;;;7.03;4.45;;;28.20;50.00;;;;;;4957833;28;20046;-80
2022/09/06 09:07:18;;;;;;;8.05;4.72;;;28.60;49.60;;;;;;4957757;28;20506;-90
2022/09/06 09:09:44;;;;;;;5.95;4.53;;;28.70;49.30;;;;;;4957814;28;20035;-83
2022/09/06 09:12:14;;;;;;;5.38;4.43;;;28.80;50.90;;;;;;4974037;28;20457;-90
2022/09/06 09:14:43;;;;;;;5.78;4.93;;;29.00;49.80;;;;;;4957568;28;20051;-78
2022/09/06 09:17:19;;;;;;;6.63;4.40;;;29.60;50.40;;;;;;4973127;28;20431;-81
2022/09/06 09:19:45;;;;;;;8.45;4.90;;;30.00;49.60;;;;;;4973648;28;20081;-81
2022/09/06 09:22:14;;;;;;;8.93;4.47;;;30.10;49.10;;;;;;4973321;28;20393;-80
2022/09/06 09:24:40;;;;;;;9.93;5.05;;;30.30;49.70;;;;;;4973169;28;20047;-83
2022/09/06 09:27:11;;;;;;;7.82;4.68;;;30.40;48.60;;;;;;4973349;28;20026;-81
2022/09/06 09:29:52;;;;;;;7.10;5.05;;;30.20;48.10;;;;;;4957044;28;20035;-78
2022/09/06 09:32:43;;;;;;;5.90;4.35;;;30.20;48.90;;;;;;4957294;28;20085;-77
2022/09/06 09:35:28;;;;;;;8.50;4.50;;;29.90;49.50;;;;;;4957451;28;20022;-85
2022/09/06 09:38:09;;;;;;;7.03;5.00;;;29.60;48.90;;;;;;5036481;28;20442;-81
2022/09/06 09:40:40;;;;;;;6.45;4.40;;;29.50;48.80;;;;;;5036052;28;20025;-88
2022/09/06 09:43:20;;;;;;;6.30;4.65;;;29.30;49.10;;;;;;5054591;28;20116;-85
2022/09/06 09:46:16;;;;;;;8.90;4.60;;;29.60;50.70;;;;;;5053454;28;20029;-78
2022/09/06 09:49:01;;;;;;;7.45;4.53;;;29.80;49.20;;;;;;5035275;28;20025;-78
2022/09/06 09:51:27;;;;;;;6.28;4.47;;;29.80;49.30;;;;;;5053338;28;20048;-79
2022/09/06 09:53:59;;;;;;;6.82;4.47;;;29.90;49.00;;;;;;5035512;28;20032;-88
2022/09/06 09:56:50;;;;;;;6.22;4.53;;;30.40;48.50;;;;;;5054270;28;20620;-79
2022/09/06 09:59:25;;;;;;;7.13;4.70;;;30.10;48.30;;;;;;5035661;28;20028;-80
2022/09/06 10:01:58;;;;;;;6.78;4.32;;;29.20;48.30;;;;;;5035935;28;20043;-81
2022/09/06 10:04:35;;;;;;;7.75;4.50;;;29.10;49.20;;;;;;5035169;28;20069;-81
2022/09/06 10:07:22;;;;;;;6.55;4.15;;;29.40;49.20;;;;;;5052790;28;20025;-81
2022/09/06 10:09:56;;;;;;;6.82;4.22;;;30.00;49.10;;;;;;5052970;28;20484;-80
2022/09/06 10:12:37;;;;;;;5.97;4.00;;;30.70;48.70;;;;;;5053410;28;20029;-84
2022/09/06 10:15:05;;;;;;;6.13;4.10;;;30.70;48.80;;;;;;5035215;28;20029;-80
2022/09/06 10:17:32;;;;;;;5.18;4.18;;;30.50;49.20;;;;;;5053435;28;20380;-78
2022/09/06 10:20:08;;;;;;;8.05;4.88;;;30.40;49.70;;;;;;5035578;28;20381;-79
2022/09/06 10:22:37;;;;;;;6.68;4.30;;;30.50;49.40;;;;;;5034985;28;20024;-85
2022/09/06 10:25:30;;;;;;;8.38;4.20;;;30.80;49.00;;;;;;5053628;28;20040;-78
2022/09/06 10:28:15;;;;;;;7.80;4.60;;;30.80;48.10;;;;;;5035174;28;20425;-88
2022/09/06 10:31:04;;;;;;;6.45;4.15;;;31.60;48.60;;;;;;5053237;28;20025;-84
2022/09/06 10:33:36;;;;;;;5.70;4.03;;;31.70;47.10;;;;;;5052912;28;20112;-83
2022/09/06 10:36:03;;;;;;;6.97;3.90;;;31.30;48.10;;;;;;5035513;28;20492;-82
2022/09/06 10:38:40;;;;;;;11.60;4.40;;;31.00;48.50;;;;;;5035253;28;20112;-78
2022/09/06 10:41:25;;;;;;;5.80;4.07;;;30.90;48.40;;;;;;5035333;28;20029;-80
2022/09/06 10:44:22;;;;;;;7.88;4.28;;;30.70;48.70;;;;;;5035398;28;20025;-85
2022/09/06 10:46:54;;;;;;;6.18;4.35;;;30.70;49.20;;;;;;5052721;28;20075;-81
2022/09/06 10:49:20;;;;;;;5.47;4.20;;;30.40;48.80;;;;;;5035340;28;20028;-83
2022/09/06 10:51:48;;;;;;;6.45;4.15;;;30.20;49.20;;;;;;5035636;28;20049;-82
2022/09/06 10:54:19;;;;;;;8.55;4.63;;;30.50;49.10;;;;;;5053363;28;20017;-83
2022/09/06 10:57:01;;;;;;;6.88;4.22;;;30.60;49.70;;;;;;5035510;28;20052;-79
2022/09/06 10:59:32;;;;;;;7.60;4.32;;;30.70;50.10;;;;;;5052734;28;20028;-79
2022/09/06 11:02:23;;;;;;;8.40;4.53;;;30.70;49.80;;;;;;5035527;28;20039;-87
2022/09/06 11:04:49;;;;;;;8.18;4.60;;;30.90;50.50;;;;;;5052714;28;20033;-82
2022/09/06 11:07:28;;;;;;;6.30;3.95;;;31.30;49.10;;;;;;5052681;28;20040;-89
2022/09/06 11:10:14;;;;;;;10.68;4.00;;;31.70;48.30;;;;;;5052810;28;20388;-80
2022/09/06 11:13:16;;;;;;;7.50;4.13;;;31.50;48.90;;;;;;5034709;28;20061;-86
2022/09/06 11:16:05;;;;;;;7.13;4.07;;;31.40;49.90;;;;;;5035007;28;20538;-79
2022/09/06 11:18:49;;;;;;;7.07;4.35;;;31.20;49.50;;;;;;5054161;28;20040;-86
2022/09/06 11:21:39;;;;;;;5.97;4.07;;;30.90;49.20;;;;;;5056639;28;20029;-81
2022/09/06 11:24:20;;;;;;;6.03;4.45;;;30.60;49.30;;;;;;5038747;28;20056;-86
2022/09/06 11:27:08;;;;;;;9.45;4.65;;;30.50;50.00;;;;;;5038807;28;20075;-84
2022/09/06 11:29:38;;;;;;;7.88;4.40;;;30.80;49.10;;;;;;5038813;28;20032;-83
2022/09/06 11:32:23;;;;;;;5.57;4.10;;;30.50;50.90;;;;;;5038875;28;20074;-81
2022/09/06 11:34:55;;;;;;;7.38;4.35;;;31.00;50.20;;;;;;5057134;28;20025;-85
2022/09/06 11:37:33;;;;;;;6.38;4.82;;;31.40;50.20;;;;;;5056210;28;20036;-81
2022/09/06 11:40:21;;;;;;;6.35;4.45;;;31.60;50.30;;;;;;5038638;28;20025;-88
2022/09/06 11:42:47;;;;;;;6.22;4.88;;;31.70;49.50;;;;;;5038671;28;20029;-82
2022/09/06 11:45:20;;;;;;;11.52;5.05;;;31.50;49.40;;;;;;5056270;28;20079;-79
2022/09/06 11:48:25;;;;;;;8.80;5.00;;;31.50;50.10;;;;;;5038850;28;20024;-81
2022/09/06 11:50:53;;;;;;;8.27;5.00;;;31.70;49.40;;;;;;5056507;28;20496;-83
2022/09/06 11:53:28;;;;;;;10.15;4.78;;;32.20;49.60;;;;;;5038661;28;20036;-79
2022/09/06 11:56:00;;;;;;;5.18;3.97;;;32.10;49.20;;;;;;5038615;28;20035;-92
2022/09/06 11:58:28;;;;;;;6.95;5.28;;;32.00;49.70;;;;;;5037974;28;20372;-83
2022/09/06 12:01:19;;;;;;;5.60;4.22;;;32.20;49.80;;;;;;5037915;28;20025;-82
2022/09/06 12:03:48;;;;;;;8.30;4.50;;;32.10;49.40;;;;;;5031118;28;20041;-83
2022/09/06 12:06:19;;;;;;;5.72;4.55;;;32.30;50.00;;;;;;5038255;28;20106;-89
2022/09/06 12:08:51;;;;;;;8.15;4.40;;;32.50;50.00;;;;;;5037635;28;20110;-82
2022/09/06 12:11:40;;;;;;;7.68;4.20;;;32.20;49.40;;;;;;5037707;28;20021;-79
2022/09/06 12:14:30;;;;;;;6.40;4.50;;;32.10;49.90;;;;;;5037995;28;20115;-82
2022/09/06 12:16:56;;;;;;;;;;;32.40;49.10;;;;;;5038797;28;20017;-84
2022/09/06 12:20:05;;;;;;;5.35;3.97;;;32.70;49.10;;;;;;5038197;28;19916;-79
2022/09/06 12:22:37;;;;;;;7.70;4.72;;;32.60;48.90;;;;;;4958709;28;20026;-81
2022/09/06 12:25:08;;;;;;;7.15;4.28;;;32.00;48.90;;;;;;4958373;28;20054;-81
2022/09/06 12:27:38;;;;;;;7.40;4.03;;;31.60;50.50;;;;;;4958460;28;20031;-77
2022/09/06 12:30:06;;;;;;;6.13;4.28;;;31.50;49.60;;;;;;4974014;28;20031;-80
2022/09/06 12:32:40;;;;;;;9.85;4.40;;;31.80;50.00;;;;;;4974693;28;20046;-87
2022/09/06 12:35:13;;;;;;;7.07;4.30;;;32.30;50.70;;;;;;4955526;29;20042;-86
2022/09/06 12:38:04;;;;;;;5.78;4.32;;;32.60;50.00;;;;;;4955576;29;20188;-78
2022/09/06 12:40:36;;;;;;;10.20;4.80;;;32.80;49.70;;;;;;4955223;29;20058;-82
2022/09/06 12:43:04;;;;;;;7.45;4.30;;;32.60;49.90;;;;;;4954354;29;20102;-80
2022/09/06 12:45:30;;;;;;;8.40;4.03;;;32.50;49.80;;;;;;4954314;29;20036;-82
2022/09/06 12:48:24;;;;;;;5.90;4.00;;;32.10;50.20;;;;;;4955035;29;20032;-80
2022/09/06 12:51:20;;;;;;;7.00;4.10;;;31.60;50.40;;;;;;4959882;28;20054;-79
2022/09/06 12:53:53;;;;;;;7.88;4.10;;;31.60;50.90;;;;;;4974414;28;20091;-85
2022/09/06 12:56:21;;;;;;;5.50;3.88;;;31.90;50.20;;;;;;4993293;28;20042;-86
2022/09/06 12:58:47;;;;;;;5.90;3.80;;;32.20;50.50;;;;;;5015295;28;20029;-94
2022/09/06 13:01:21;;;;;;;5.20;3.70;;;32.40;49.70;;;;;;5014319;28;20034;-82
2022/09/06 13:04:06;;;;;;;5.85;3.70;;;32.30;49.90;;;;;;5015151;28;20042;-81
2022/09/06 13:06:40;;;;;;;7.13;3.63;;;31.80;49.70;;;;;;5014859;28;20084;-81